sensor_id;sensor_type;location;lat;lon;timestamp;P1;durP1;ratioP1;P2;durP2;ratioP2
6101;SDS011;3081;50.584;7.032;2023-04-08T00:00:55;14.97;;;7.70;;
6101;SDS011;3081;50.584;7.032;2023-04-08T00:03:22;21.77;;;9.43;;
6101;SDS011;3081;50.584;7.032;2023-04-08T00:05:49;15.27;;;9.63;;
6101;SDS011;3081;50.584;7.032;2023-04-08T00:08:17;19.10;;;8.30;;
6101;SDS011;3081;50.584;7.032;2023-04-08T00:10:44;19.23;;;6.77;;
6101;SDS011;3081;50.584;7.032;2023-04-08T00:13:11;24.70;;;10.33;;
6101;SDS011;3081;50.584;7.032;2023-04-08T00:15:39;22.87;;;10.23;;
6101;SDS011;3081;50.584;7.032;2023-04-08T00:18:06;21.93;;;10.30;;
6101;SDS011;3081;50.584;7.032;2023-04-08T00:20:33;22.93;;;11.40;;
6101;SDS011;3081;50.584;7.032;2023-04-08T00:23:00;19.10;;;10.33;;
6101;SDS011;3081;50.584;7.032;2023-04-08T00:25:28;20.97;;;8.53;;
6101;SDS011;3081;50.584;7.032;2023-04-08T00:27:56;17.40;;;8.60;;
6101;SDS011;3081;50.584;7.032;2023-04-08T00:30:23;20.53;;;9.77;;
6101;SDS011;3081;50.584;7.032;2023-04-08T00:32:51;19.40;;;11.20;;
6101;SDS011;3081;50.584;7.032;2023-04-08T00:35:18;21.83;;;10.73;;
6101;SDS011;3081;50.584;7.032;2023-04-08T00:37:45;14.73;;;7.33;;
6101;SDS011;3081;50.584;7.032;2023-04-08T00:40:13;25.43;;;11.20;;
6101;SDS011;3081;50.584;7.032;2023-04-08T00:42:42;15.30;;;8.67;;
6101;SDS011;3081;50.584;7.032;2023-04-08T00:45:09;19.77;;;9.50;;
6101;SDS011;3081;50.584;7.032;2023-04-08T00:47:36;12.97;;;6.70;;
6101;SDS011;3081;50.584;7.032;2023-04-08T00:50:04;27.63;;;7.33;;
6101;SDS011;3081;50.584;7.032;2023-04-08T00:52:33;17.10;;;7.67;;
6101;SDS011;3081;50.584;7.032;2023-04-08T00:55:00;20.43;;;7.67;;
6101;SDS011;3081;50.584;7.032;2023-04-08T00:57:27;20.10;;;10.90;;
6101;SDS011;3081;50.584;7.032;2023-04-08T00:59:55;20.13;;;10.50;;
6101;SDS011;3081;50.584;7.032;2023-04-08T01:02:25;19.87;;;11.10;;
6101;SDS011;3081;50.584;7.032;2023-04-08T01:04:57;18.50;;;8.90;;
6101;SDS011;3081;50.584;7.032;2023-04-08T01:07:30;22.00;;;11.07;;
6101;SDS011;3081;50.584;7.032;2023-04-08T01:10:01;27.43;;;10.90;;
6101;SDS011;3081;50.584;7.032;2023-04-08T01:12:31;22.57;;;11.10;;
6101;SDS011;3081;50.584;7.032;2023-04-08T01:15:04;21.23;;;11.03;;
6101;SDS011;3081;50.584;7.032;2023-04-08T01:17:33;23.40;;;12.23;;
6101;SDS011;3081;50.584;7.032;2023-04-08T01:20:03;25.23;;;11.90;;
6101;SDS011;3081;50.584;7.032;2023-04-08T01:22:34;21.40;;;11.00;;
6101;SDS011;3081;50.584;7.032;2023-04-08T01:27:41;22.63;;;11.20;;
6101;SDS011;3081;50.584;7.032;2023-04-08T01:30:09;22.90;;;11.80;;
6101;SDS011;3081;50.584;7.032;2023-04-08T01:32:37;25.77;;;12.30;;
6101;SDS011;3081;50.584;7.032;2023-04-08T01:35:05;25.90;;;12.30;;
6101;SDS011;3081;50.584;7.032;2023-04-08T01:37:33;25.23;;;12.60;;
6101;SDS011;3081;50.584;7.032;2023-04-08T01:40:01;21.40;;;11.40;;
6101;SDS011;3081;50.584;7.032;2023-04-08T01:42:28;19.13;;;9.83;;
6101;SDS011;3081;50.584;7.032;2023-04-08T01:44:57;24.10;;;12.53;;
6101;SDS011;3081;50.584;7.032;2023-04-08T01:47:26;20.10;;;11.43;;
6101;SDS011;3081;50.584;7.032;2023-04-08T01:49:54;22.77;;;10.97;;
6101;SDS011;3081;50.584;7.032;2023-04-08T01:52:22;22.20;;;11.13;;
6101;SDS011;3081;50.584;7.032;2023-04-08T01:54:50;22.17;;;11.73;;
6101;SDS011;3081;50.584;7.032;2023-04-08T01:57:20;18.17;;;8.93;;
6101;SDS011;3081;50.584;7.032;2023-04-08T01:59:50;21.57;;;13.10;;
6101;SDS011;3081;50.584;7.032;2023-04-08T02:02:20;27.13;;;12.23;;
6101;SDS011;3081;50.584;7.032;2023-04-08T02:04:49;20.27;;;9.83;;
6101;SDS011;3081;50.584;7.032;2023-04-08T02:07:16;21.23;;;10.23;;
6101;SDS011;3081;50.584;7.032;2023-04-08T02:09:44;17.83;;;9.90;;
6101;SDS011;3081;50.584;7.032;2023-04-08T02:12:10;26.40;;;11.83;;
6101;SDS011;3081;50.584;7.032;2023-04-08T02:14:38;23.10;;;10.60;;
6101;SDS011;3081;50.584;7.032;2023-04-08T02:17:06;21.87;;;9.90;;
6101;SDS011;3081;50.584;7.032;2023-04-08T02:19:39;16.43;;;7.57;;
6101;SDS011;3081;50.584;7.032;2023-04-08T02:22:16;26.67;;;13.00;;
6101;SDS011;3081;50.584;7.032;2023-04-08T02:24:47;24.13;;;12.27;;
6101;SDS011;3081;50.584;7.032;2023-04-08T02:27:15;27.73;;;12.10;;
6101;SDS011;3081;50.584;7.032;2023-04-08T02:29:43;26.60;;;12.60;;
6101;SDS011;3081;50.584;7.032;2023-04-08T02:32:12;24.30;;;10.23;;
6101;SDS011;3081;50.584;7.032;2023-04-08T02:34:42;30.73;;;13.67;;
6101;SDS011;3081;50.584;7.032;2023-04-08T02:37:10;21.23;;;12.17;;
6101;SDS011;3081;50.584;7.032;2023-04-08T02:39:37;29.27;;;13.23;;
6101;SDS011;3081;50.584;7.032;2023-04-08T02:42:04;21.67;;;11.93;;
6101;SDS011;3081;50.584;7.032;2023-04-08T02:44:31;27.97;;;14.30;;
6101;SDS011;3081;50.584;7.032;2023-04-08T02:46:58;29.13;;;14.23;;
6101;SDS011;3081;50.584;7.032;2023-04-08T02:49:25;31.40;;;15.40;;
6101;SDS011;3081;50.584;7.032;2023-04-08T02:51:53;27.40;;;13.23;;
6101;SDS011;3081;50.584;7.032;2023-04-08T02:54:20;24.03;;;9.90;;
6101;SDS011;3081;50.584;7.032;2023-04-08T02:56:47;25.53;;;13.17;;
6101;SDS011;3081;50.584;7.032;2023-04-08T02:59:13;29.10;;;12.17;;
6101;SDS011;3081;50.584;7.032;2023-04-08T03:01:41;27.87;;;14.03;;
6101;SDS011;3081;50.584;7.032;2023-04-08T03:04:08;39.97;;;16.03;;
6101;SDS011;3081;50.584;7.032;2023-04-08T03:06:35;25.33;;;12.40;;
6101;SDS011;3081;50.584;7.032;2023-04-08T03:09:03;31.00;;;13.47;;
6101;SDS011;3081;50.584;7.032;2023-04-08T03:11:31;30.03;;;14.90;;
6101;SDS011;3081;50.584;7.032;2023-04-08T03:13:58;26.40;;;11.53;;
6101;SDS011;3081;50.584;7.032;2023-04-08T03:16:25;24.73;;;12.90;;
6101;SDS011;3081;50.584;7.032;2023-04-08T03:18:52;36.33;;;17.03;;
6101;SDS011;3081;50.584;7.032;2023-04-08T03:21:19;23.37;;;10.17;;
6101;SDS011;3081;50.584;7.032;2023-04-08T03:23:46;27.67;;;15.00;;
6101;SDS011;3081;50.584;7.032;2023-04-08T03:26:14;29.47;;;13.40;;
6101;SDS011;3081;50.584;7.032;2023-04-08T03:28:41;31.70;;;12.60;;
6101;SDS011;3081;50.584;7.032;2023-04-08T03:31:08;32.27;;;16.30;;
6101;SDS011;3081;50.584;7.032;2023-04-08T03:33:35;25.60;;;12.17;;
6101;SDS011;3081;50.584;7.032;2023-04-08T03:36:02;33.87;;;17.10;;
6101;SDS011;3081;50.584;7.032;2023-04-08T03:38:29;40.27;;;18.33;;
6101;SDS011;3081;50.584;7.032;2023-04-08T03:40:56;38.10;;;14.23;;
6101;SDS011;3081;50.584;7.032;2023-04-08T03:43:24;29.63;;;14.27;;
6101;SDS011;3081;50.584;7.032;2023-04-08T03:45:51;32.37;;;14.63;;
6101;SDS011;3081;50.584;7.032;2023-04-08T03:48:18;36.27;;;16.60;;
6101;SDS011;3081;50.584;7.032;2023-04-08T03:50:45;37.53;;;17.67;;
6101;SDS011;3081;50.584;7.032;2023-04-08T03:53:12;26.90;;;12.57;;
6101;SDS011;3081;50.584;7.032;2023-04-08T03:55:39;36.53;;;17.93;;
6101;SDS011;3081;50.584;7.032;2023-04-08T03:58:06;36.17;;;17.27;;
6101;SDS011;3081;50.584;7.032;2023-04-08T04:00:35;37.73;;;17.13;;
6101;SDS011;3081;50.584;7.032;2023-04-08T04:03:02;39.90;;;19.10;;
6101;SDS011;3081;50.584;7.032;2023-04-08T04:05:29;58.47;;;20.63;;
6101;SDS011;3081;50.584;7.032;2023-04-08T04:07:56;41.33;;;17.90;;
6101;SDS011;3081;50.584;7.032;2023-04-08T04:10:23;35.70;;;15.93;;
6101;SDS011;3081;50.584;7.032;2023-04-08T04:12:50;39.60;;;19.10;;
6101;SDS011;3081;50.584;7.032;2023-04-08T04:15:17;39.07;;;15.77;;
6101;SDS011;3081;50.584;7.032;2023-04-08T04:17:47;44.60;;;17.60;;
6101;SDS011;3081;50.584;7.032;2023-04-08T04:20:15;46.63;;;20.00;;
6101;SDS011;3081;50.584;7.032;2023-04-08T04:22:42;50.10;;;19.20;;
6101;SDS011;3081;50.584;7.032;2023-04-08T04:25:09;47.10;;;19.80;;
6101;SDS011;3081;50.584;7.032;2023-04-08T04:27:36;42.30;;;20.00;;
6101;SDS011;3081;50.584;7.032;2023-04-08T04:30:03;46.27;;;20.53;;
6101;SDS011;3081;50.584;7.032;2023-04-08T04:32:31;43.20;;;20.13;;
6101;SDS011;3081;50.584;7.032;2023-04-08T04:34:59;37.97;;;18.67;;
6101;SDS011;3081;50.584;7.032;2023-04-08T04:37:26;50.10;;;21.63;;
6101;SDS011;3081;50.584;7.032;2023-04-08T04:39:53;37.67;;;19.27;;
6101;SDS011;3081;50.584;7.032;2023-04-08T04:42:20;42.70;;;18.77;;
6101;SDS011;3081;50.584;7.032;2023-04-08T04:44:47;44.80;;;20.57;;
6101;SDS011;3081;50.584;7.032;2023-04-08T04:47:14;41.73;;;17.87;;
6101;SDS011;3081;50.584;7.032;2023-04-08T04:49:41;38.47;;;19.47;;
6101;SDS011;3081;50.584;7.032;2023-04-08T04:52:11;42.67;;;20.00;;
6101;SDS011;3081;50.584;7.032;2023-04-08T04:54:38;42.90;;;19.37;;
6101;SDS011;3081;50.584;7.032;2023-04-08T04:57:05;37.93;;;19.70;;
6101;SDS011;3081;50.584;7.032;2023-04-08T04:59:32;45.13;;;18.83;;
6101;SDS011;3081;50.584;7.032;2023-04-08T05:01:58;49.07;;;19.13;;
6101;SDS011;3081;50.584;7.032;2023-04-08T05:04:25;39.87;;;17.83;;
6101;SDS011;3081;50.584;7.032;2023-04-08T05:06:52;36.53;;;15.67;;
6101;SDS011;3081;50.584;7.032;2023-04-08T05:09:20;40.33;;;16.90;;
6101;SDS011;3081;50.584;7.032;2023-04-08T05:11:47;46.80;;;17.63;;
6101;SDS011;3081;50.584;7.032;2023-04-08T05:14:14;37.17;;;17.57;;
6101;SDS011;3081;50.584;7.032;2023-04-08T05:16:41;35.57;;;14.90;;
6101;SDS011;3081;50.584;7.032;2023-04-08T05:19:08;45.27;;;18.73;;
6101;SDS011;3081;50.584;7.032;2023-04-08T05:21:35;41.23;;;20.07;;
6101;SDS011;3081;50.584;7.032;2023-04-08T05:24:02;52.97;;;22.53;;
6101;SDS011;3081;50.584;7.032;2023-04-08T05:26:30;40.70;;;18.40;;
6101;SDS011;3081;50.584;7.032;2023-04-08T05:28:58;50.47;;;21.17;;
6101;SDS011;3081;50.584;7.032;2023-04-08T05:31:25;46.60;;;18.10;;
6101;SDS011;3081;50.584;7.032;2023-04-08T05:33:52;46.57;;;20.57;;
6101;SDS011;3081;50.584;7.032;2023-04-08T05:36:18;32.80;;;12.50;;
6101;SDS011;3081;50.584;7.032;2023-04-08T05:38:45;52.53;;;19.20;;
6101;SDS011;3081;50.584;7.032;2023-04-08T05:41:12;40.10;;;18.30;;
6101;SDS011;3081;50.584;7.032;2023-04-08T05:43:41;42.77;;;18.10;;
6101;SDS011;3081;50.584;7.032;2023-04-08T05:46:08;39.23;;;19.67;;
6101;SDS011;3081;50.584;7.032;2023-04-08T05:48:35;45.10;;;19.23;;
6101;SDS011;3081;50.584;7.032;2023-04-08T05:51:02;24.80;;;11.40;;
6101;SDS011;3081;50.584;7.032;2023-04-08T05:53:29;51.30;;;18.87;;
6101;SDS011;3081;50.584;7.032;2023-04-08T05:55:56;45.30;;;19.13;;
6101;SDS011;3081;50.584;7.032;2023-04-08T05:58:23;46.10;;;19.97;;
6101;SDS011;3081;50.584;7.032;2023-04-08T06:00:51;38.90;;;16.20;;
6101;SDS011;3081;50.584;7.032;2023-04-08T06:03:19;40.50;;;17.73;;
6101;SDS011;3081;50.584;7.032;2023-04-08T06:05:46;42.63;;;18.30;;
6101;SDS011;3081;50.584;7.032;2023-04-08T06:08:13;44.63;;;16.80;;
6101;SDS011;3081;50.584;7.032;2023-04-08T06:10:42;40.47;;;16.67;;
6101;SDS011;3081;50.584;7.032;2023-04-08T06:13:14;44.13;;;17.87;;
6101;SDS011;3081;50.584;7.032;2023-04-08T06:15:41;28.33;;;12.60;;
6101;SDS011;3081;50.584;7.032;2023-04-08T06:18:09;40.13;;;17.00;;
6101;SDS011;3081;50.584;7.032;2023-04-08T06:20:36;39.57;;;17.00;;
6101;SDS011;3081;50.584;7.032;2023-04-08T06:23:03;40.40;;;15.23;;
6101;SDS011;3081;50.584;7.032;2023-04-08T06:25:30;48.67;;;20.20;;
6101;SDS011;3081;50.584;7.032;2023-04-08T06:27:57;41.30;;;18.10;;
6101;SDS011;3081;50.584;7.032;2023-04-08T06:30:24;39.60;;;17.57;;
6101;SDS011;3081;50.584;7.032;2023-04-08T06:32:51;42.83;;;16.27;;
6101;SDS011;3081;50.584;7.032;2023-04-08T06:35:19;43.57;;;18.30;;
6101;SDS011;3081;50.584;7.032;2023-04-08T06:37:46;50.03;;;18.60;;
6101;SDS011;3081;50.584;7.032;2023-04-08T06:40:13;46.13;;;16.80;;
6101;SDS011;3081;50.584;7.032;2023-04-08T06:42:40;39.43;;;16.40;;
6101;SDS011;3081;50.584;7.032;2023-04-08T06:45:09;41.73;;;17.63;;
6101;SDS011;3081;50.584;7.032;2023-04-08T06:47:36;28.77;;;11.80;;
6101;SDS011;3081;50.584;7.032;2023-04-08T06:50:03;38.77;;;14.47;;
6101;SDS011;3081;50.584;7.032;2023-04-08T06:52:32;45.60;;;17.90;;
6101;SDS011;3081;50.584;7.032;2023-04-08T06:54:59;42.83;;;17.33;;
6101;SDS011;3081;50.584;7.032;2023-04-08T06:57:26;43.00;;;16.40;;
6101;SDS011;3081;50.584;7.032;2023-04-08T06:59:53;42.13;;;17.70;;
6101;SDS011;3081;50.584;7.032;2023-04-08T07:02:20;41.70;;;17.90;;
6101;SDS011;3081;50.584;7.032;2023-04-08T07:04:47;41.37;;;16.97;;
6101;SDS011;3081;50.584;7.032;2023-04-08T07:07:14;45.73;;;17.93;;
6101;SDS011;3081;50.584;7.032;2023-04-08T07:09:42;41.13;;;16.43;;
6101;SDS011;3081;50.584;7.032;2023-04-08T07:12:10;32.70;;;13.60;;
6101;SDS011;3081;50.584;7.032;2023-04-08T07:14:37;38.63;;;18.70;;
6101;SDS011;3081;50.584;7.032;2023-04-08T07:17:03;35.17;;;15.00;;
6101;SDS011;3081;50.584;7.032;2023-04-08T07:19:31;40.00;;;16.87;;
6101;SDS011;3081;50.584;7.032;2023-04-08T07:21:58;41.77;;;16.70;;
6101;SDS011;3081;50.584;7.032;2023-04-08T07:24:24;42.63;;;16.27;;
6101;SDS011;3081;50.584;7.032;2023-04-08T07:26:53;35.43;;;14.90;;
6101;SDS011;3081;50.584;7.032;2023-04-08T07:29:20;37.57;;;14.87;;
6101;SDS011;3081;50.584;7.032;2023-04-08T07:31:47;38.60;;;15.90;;
6101;SDS011;3081;50.584;7.032;2023-04-08T07:34:15;49.00;;;18.37;;
6101;SDS011;3081;50.584;7.032;2023-04-08T07:36:42;40.30;;;16.97;;
6101;SDS011;3081;50.584;7.032;2023-04-08T07:39:09;38.07;;;17.00;;
6101;SDS011;3081;50.584;7.032;2023-04-08T07:41:36;37.13;;;16.63;;
6101;SDS011;3081;50.584;7.032;2023-04-08T07:44:05;37.87;;;17.27;;
6101;SDS011;3081;50.584;7.032;2023-04-08T07:46:35;38.27;;;18.30;;
6101;SDS011;3081;50.584;7.032;2023-04-08T07:49:03;37.80;;;17.07;;
6101;SDS011;3081;50.584;7.032;2023-04-08T07:51:30;39.60;;;17.07;;
6101;SDS011;3081;50.584;7.032;2023-04-08T07:53:58;34.47;;;16.50;;
6101;SDS011;3081;50.584;7.032;2023-04-08T07:56:25;37.40;;;17.57;;
6101;SDS011;3081;50.584;7.032;2023-04-08T07:58:52;35.70;;;17.60;;
6101;SDS011;3081;50.584;7.032;2023-04-08T08:01:20;39.57;;;18.50;;
6101;SDS011;3081;50.584;7.032;2023-04-08T08:03:48;35.70;;;17.50;;
6101;SDS011;3081;50.584;7.032;2023-04-08T08:06:16;32.47;;;15.37;;
6101;SDS011;3081;50.584;7.032;2023-04-08T08:08:43;33.67;;;15.80;;
6101;SDS011;3081;50.584;7.032;2023-04-08T08:11:10;33.37;;;16.43;;
6101;SDS011;3081;50.584;7.032;2023-04-08T08:13:37;37.23;;;16.00;;
6101;SDS011;3081;50.584;7.032;2023-04-08T08:16:04;35.67;;;17.03;;
6101;SDS011;3081;50.584;7.032;2023-04-08T08:18:34;35.23;;;17.50;;
6101;SDS011;3081;50.584;7.032;2023-04-08T08:21:01;27.00;;;13.80;;
6101;SDS011;3081;50.584;7.032;2023-04-08T08:23:28;30.50;;;16.00;;
6101;SDS011;3081;50.584;7.032;2023-04-08T08:25:58;24.93;;;13.13;;
6101;SDS011;3081;50.584;7.032;2023-04-08T08:28:25;27.63;;;14.63;;
6101;SDS011;3081;50.584;7.032;2023-04-08T08:30:52;27.17;;;14.13;;
6101;SDS011;3081;50.584;7.032;2023-04-08T08:33:19;27.33;;;13.80;;
6101;SDS011;3081;50.584;7.032;2023-04-08T08:35:48;34.17;;;16.53;;
6101;SDS011;3081;50.584;7.032;2023-04-08T08:38:15;28.37;;;12.60;;
6101;SDS011;3081;50.584;7.032;2023-04-08T08:40:42;32.33;;;15.60;;
6101;SDS011;3081;50.584;7.032;2023-04-08T08:43:09;28.57;;;14.27;;
6101;SDS011;3081;50.584;7.032;2023-04-08T08:45:37;30.23;;;15.43;;
6101;SDS011;3081;50.584;7.032;2023-04-08T08:48:05;29.03;;;14.30;;
6101;SDS011;3081;50.584;7.032;2023-04-08T08:50:32;32.03;;;16.33;;
6101;SDS011;3081;50.584;7.032;2023-04-08T08:53:01;31.07;;;16.90;;
6101;SDS011;3081;50.584;7.032;2023-04-08T08:55:29;27.43;;;12.57;;
6101;SDS011;3081;50.584;7.032;2023-04-08T08:57:57;33.93;;;18.87;;
6101;SDS011;3081;50.584;7.032;2023-04-08T09:00:31;36.37;;;18.60;;
6101;SDS011;3081;50.584;7.032;2023-04-08T09:03:14;36.57;;;17.00;;
6101;SDS011;3081;50.584;7.032;2023-04-08T09:05:48;35.90;;;19.23;;
6101;SDS011;3081;50.584;7.032;2023-04-08T09:08:24;42.80;;;18.50;;
6101;SDS011;3081;50.584;7.032;2023-04-08T09:10:51;30.27;;;16.67;;
6101;SDS011;3081;50.584;7.032;2023-04-08T09:13:18;39.20;;;17.70;;
6101;SDS011;3081;50.584;7.032;2023-04-08T09:16:00;33.53;;;16.40;;
6101;SDS011;3081;50.584;7.032;2023-04-08T09:18:29;36.67;;;16.40;;
6101;SDS011;3081;50.584;7.032;2023-04-08T09:20:56;36.53;;;18.07;;
6101;SDS011;3081;50.584;7.032;2023-04-08T09:23:29;34.60;;;17.30;;
6101;SDS011;3081;50.584;7.032;2023-04-08T09:26:06;35.17;;;16.37;;
6101;SDS011;3081;50.584;7.032;2023-04-08T09:28:35;40.70;;;21.30;;
6101;SDS011;3081;50.584;7.032;2023-04-08T09:31:18;36.00;;;18.10;;
6101;SDS011;3081;50.584;7.032;2023-04-08T09:33:46;35.73;;;17.80;;
6101;SDS011;3081;50.584;7.032;2023-04-08T09:36:13;37.27;;;18.40;;
6101;SDS011;3081;50.584;7.032;2023-04-08T09:38:42;38.73;;;19.70;;
6101;SDS011;3081;50.584;7.032;2023-04-08T09:41:12;41.10;;;19.80;;
6101;SDS011;3081;50.584;7.032;2023-04-08T09:43:41;38.63;;;18.90;;
6101;SDS011;3081;50.584;7.032;2023-04-08T09:46:13;36.33;;;17.67;;
6101;SDS011;3081;50.584;7.032;2023-04-08T09:48:43;37.87;;;19.37;;
6101;SDS011;3081;50.584;7.032;2023-04-08T09:51:15;36.07;;;18.70;;
6101;SDS011;3081;50.584;7.032;2023-04-08T09:53:47;34.50;;;20.63;;
6101;SDS011;3081;50.584;7.032;2023-04-08T09:56:19;41.50;;;18.83;;
6101;SDS011;3081;50.584;7.032;2023-04-08T09:58:49;40.00;;;18.33;;
6101;SDS011;3081;50.584;7.032;2023-04-08T10:01:21;40.57;;;20.20;;
6101;SDS011;3081;50.584;7.032;2023-04-08T10:03:53;35.37;;;18.90;;
6101;SDS011;3081;50.584;7.032;2023-04-08T10:06:23;36.10;;;19.17;;
6101;SDS011;3081;50.584;7.032;2023-04-08T10:08:55;33.93;;;18.70;;
6101;SDS011;3081;50.584;7.032;2023-04-08T10:11:24;34.87;;;17.53;;
6101;SDS011;3081;50.584;7.032;2023-04-08T10:13:51;39.80;;;20.30;;
6101;SDS011;3081;50.584;7.032;2023-04-08T10:16:19;42.40;;;20.73;;
6101;SDS011;3081;50.584;7.032;2023-04-08T10:18:49;40.67;;;20.93;;
6101;SDS011;3081;50.584;7.032;2023-04-08T10:21:32;38.13;;;19.37;;
6101;SDS011;3081;50.584;7.032;2023-04-08T10:24:01;38.27;;;20.97;;
6101;SDS011;3081;50.584;7.032;2023-04-08T10:26:32;39.10;;;22.03;;
6101;SDS011;3081;50.584;7.032;2023-04-08T10:31:59;38.10;;;18.20;;
6101;SDS011;3081;50.584;7.032;2023-04-08T10:34:26;36.37;;;20.50;;
6101;SDS011;3081;50.584;7.032;2023-04-08T10:36:55;38.60;;;20.70;;
6101;SDS011;3081;50.584;7.032;2023-04-08T10:39:27;33.87;;;18.30;;
6101;SDS011;3081;50.584;7.032;2023-04-08T10:41:55;38.30;;;19.90;;
6101;SDS011;3081;50.584;7.032;2023-04-08T10:44:23;32.90;;;18.80;;
6101;SDS011;3081;50.584;7.032;2023-04-08T10:46:51;35.10;;;19.57;;
6101;SDS011;3081;50.584;7.032;2023-04-08T10:49:19;32.50;;;18.60;;
6101;SDS011;3081;50.584;7.032;2023-04-08T10:51:47;32.97;;;18.17;;
6101;SDS011;3081;50.584;7.032;2023-04-08T10:54:14;33.90;;;19.70;;
6101;SDS011;3081;50.584;7.032;2023-04-08T10:56:45;30.97;;;18.50;;
6101;SDS011;3081;50.584;7.032;2023-04-08T10:59:13;33.13;;;18.43;;
6101;SDS011;3081;50.584;7.032;2023-04-08T11:01:42;33.33;;;19.20;;
6101;SDS011;3081;50.584;7.032;2023-04-08T11:04:10;40.40;;;20.73;;
6101;SDS011;3081;50.584;7.032;2023-04-08T11:06:42;37.93;;;20.73;;
6101;SDS011;3081;50.584;7.032;2023-04-08T11:09:11;37.23;;;20.07;;
6101;SDS011;3081;50.584;7.032;2023-04-08T11:11:40;35.90;;;19.27;;
6101;SDS011;3081;50.584;7.032;2023-04-08T11:14:09;36.00;;;20.87;;
6101;SDS011;3081;50.584;7.032;2023-04-08T11:16:37;43.30;;;20.63;;
6101;SDS011;3081;50.584;7.032;2023-04-08T11:19:04;42.43;;;21.40;;
6101;SDS011;3081;50.584;7.032;2023-04-08T11:21:34;40.47;;;22.70;;
6101;SDS011;3081;50.584;7.032;2023-04-08T11:24:05;47.03;;;25.07;;
6101;SDS011;3081;50.584;7.032;2023-04-08T11:26:36;38.57;;;21.90;;
6101;SDS011;3081;50.584;7.032;2023-04-08T11:29:03;38.40;;;22.50;;
6101;SDS011;3081;50.584;7.032;2023-04-08T11:31:34;40.23;;;21.53;;
6101;SDS011;3081;50.584;7.032;2023-04-08T11:34:01;38.87;;;23.33;;
6101;SDS011;3081;50.584;7.032;2023-04-08T11:36:28;37.80;;;21.30;;
6101;SDS011;3081;50.584;7.032;2023-04-08T11:38:55;37.83;;;21.50;;
6101;SDS011;3081;50.584;7.032;2023-04-08T11:41:22;40.77;;;25.50;;
6101;SDS011;3081;50.584;7.032;2023-04-08T11:43:54;37.40;;;22.40;;
6101;SDS011;3081;50.584;7.032;2023-04-08T11:46:22;36.67;;;21.00;;
6101;SDS011;3081;50.584;7.032;2023-04-08T11:48:57;38.30;;;21.30;;
6101;SDS011;3081;50.584;7.032;2023-04-08T11:51:25;37.20;;;20.30;;
6101;SDS011;3081;50.584;7.032;2023-04-08T11:53:52;38.60;;;22.47;;
6101;SDS011;3081;50.584;7.032;2023-04-08T11:56:20;36.20;;;18.30;;
6101;SDS011;3081;50.584;7.032;2023-04-08T11:58:48;39.87;;;21.03;;
6101;SDS011;3081;50.584;7.032;2023-04-08T12:01:15;32.33;;;19.77;;
6101;SDS011;3081;50.584;7.032;2023-04-08T12:03:52;31.13;;;18.20;;
6101;SDS011;3081;50.584;7.032;2023-04-08T12:06:22;33.70;;;19.53;;
6101;SDS011;3081;50.584;7.032;2023-04-08T12:08:51;34.40;;;19.13;;
6101;SDS011;3081;50.584;7.032;2023-04-08T12:11:18;33.43;;;19.93;;
6101;SDS011;3081;50.584;7.032;2023-04-08T12:13:45;35.13;;;20.93;;
6101;SDS011;3081;50.584;7.032;2023-04-08T12:16:13;33.47;;;18.83;;
6101;SDS011;3081;50.584;7.032;2023-04-08T12:18:40;34.60;;;17.87;;
6101;SDS011;3081;50.584;7.032;2023-04-08T12:21:07;34.77;;;19.67;;
6101;SDS011;3081;50.584;7.032;2023-04-08T12:23:36;37.57;;;21.50;;
6101;SDS011;3081;50.584;7.032;2023-04-08T12:26:03;33.73;;;19.67;;
6101;SDS011;3081;50.584;7.032;2023-04-08T12:28:30;33.80;;;18.97;;
6101;SDS011;3081;50.584;7.032;2023-04-08T12:30:58;33.20;;;18.73;;
6101;SDS011;3081;50.584;7.032;2023-04-08T12:33:25;37.33;;;19.93;;
6101;SDS011;3081;50.584;7.032;2023-04-08T12:35:52;38.77;;;21.43;;
6101;SDS011;3081;50.584;7.032;2023-04-08T12:38:19;41.90;;;21.03;;
6101;SDS011;3081;50.584;7.032;2023-04-08T12:40:48;39.00;;;19.67;;
6101;SDS011;3081;50.584;7.032;2023-04-08T12:43:15;37.63;;;20.17;;
6101;SDS011;3081;50.584;7.032;2023-04-08T12:45:42;42.17;;;20.17;;
6101;SDS011;3081;50.584;7.032;2023-04-08T12:48:09;38.03;;;20.43;;
6101;SDS011;3081;50.584;7.032;2023-04-08T12:50:36;42.67;;;22.40;;
6101;SDS011;3081;50.584;7.032;2023-04-08T12:53:02;38.60;;;18.67;;
6101;SDS011;3081;50.584;7.032;2023-04-08T12:55:29;42.20;;;19.80;;
6101;SDS011;3081;50.584;7.032;2023-04-08T12:57:58;40.53;;;21.07;;
6101;SDS011;3081;50.584;7.032;2023-04-08T13:00:25;42.00;;;20.50;;
6101;SDS011;3081;50.584;7.032;2023-04-08T13:02:51;41.67;;;20.60;;
6101;SDS011;3081;50.584;7.032;2023-04-08T13:05:18;45.83;;;22.00;;
6101;SDS011;3081;50.584;7.032;2023-04-08T13:07:45;45.80;;;23.10;;
6101;SDS011;3081;50.584;7.032;2023-04-08T13:10:12;42.83;;;23.77;;
6101;SDS011;3081;50.584;7.032;2023-04-08T13:12:39;42.70;;;23.77;;
6101;SDS011;3081;50.584;7.032;2023-04-08T13:15:08;41.70;;;22.70;;
6101;SDS011;3081;50.584;7.032;2023-04-08T13:17:36;43.90;;;23.10;;
6101;SDS011;3081;50.584;7.032;2023-04-08T13:20:03;42.13;;;20.97;;
6101;SDS011;3081;50.584;7.032;2023-04-08T13:22:33;42.50;;;21.87;;
6101;SDS011;3081;50.584;7.032;2023-04-08T13:25:00;45.77;;;24.87;;
6101;SDS011;3081;50.584;7.032;2023-04-08T13:27:29;38.83;;;21.67;;
6101;SDS011;3081;50.584;7.032;2023-04-08T13:29:56;40.60;;;22.37;;
6101;SDS011;3081;50.584;7.032;2023-04-08T13:32:24;37.80;;;22.27;;
6101;SDS011;3081;50.584;7.032;2023-04-08T13:34:51;39.13;;;22.63;;
6101;SDS011;3081;50.584;7.032;2023-04-08T13:37:18;38.20;;;22.03;;
6101;SDS011;3081;50.584;7.032;2023-04-08T13:39:45;35.73;;;21.23;;
6101;SDS011;3081;50.584;7.032;2023-04-08T13:42:12;35.60;;;21.50;;
6101;SDS011;3081;50.584;7.032;2023-04-08T13:44:39;37.70;;;20.30;;
6101;SDS011;3081;50.584;7.032;2023-04-08T13:47:06;35.60;;;21.77;;
6101;SDS011;3081;50.584;7.032;2023-04-08T13:49:34;33.30;;;20.87;;
6101;SDS011;3081;50.584;7.032;2023-04-08T13:52:01;35.60;;;20.30;;
6101;SDS011;3081;50.584;7.032;2023-04-08T13:54:28;33.63;;;19.87;;
6101;SDS011;3081;50.584;7.032;2023-04-08T13:56:55;37.60;;;21.10;;
6101;SDS011;3081;50.584;7.032;2023-04-08T13:59:22;31.73;;;19.17;;
6101;SDS011;3081;50.584;7.032;2023-04-08T14:01:49;31.33;;;19.40;;
6101;SDS011;3081;50.584;7.032;2023-04-08T14:04:18;35.00;;;20.57;;
6101;SDS011;3081;50.584;7.032;2023-04-08T14:06:46;32.57;;;20.73;;
6101;SDS011;3081;50.584;7.032;2023-04-08T14:09:15;30.80;;;18.40;;
6101;SDS011;3081;50.584;7.032;2023-04-08T14:11:42;26.83;;;16.03;;
6101;SDS011;3081;50.584;7.032;2023-04-08T14:14:09;26.57;;;15.63;;
6101;SDS011;3081;50.584;7.032;2023-04-08T14:16:36;30.40;;;16.57;;
6101;SDS011;3081;50.584;7.032;2023-04-08T14:19:03;31.80;;;20.07;;
6101;SDS011;3081;50.584;7.032;2023-04-08T14:21:30;33.90;;;20.30;;
6101;SDS011;3081;50.584;7.032;2023-04-08T14:23:58;31.40;;;18.43;;
6101;SDS011;3081;50.584;7.032;2023-04-08T14:26:25;32.37;;;19.03;;
6101;SDS011;3081;50.584;7.032;2023-04-08T14:28:52;30.77;;;18.80;;
6101;SDS011;3081;50.584;7.032;2023-04-08T14:31:19;31.37;;;16.10;;
6101;SDS011;3081;50.584;7.032;2023-04-08T14:33:46;28.00;;;16.23;;
6101;SDS011;3081;50.584;7.032;2023-04-08T14:36:13;38.70;;;16.87;;
6101;SDS011;3081;50.584;7.032;2023-04-08T14:38:40;29.47;;;16.90;;
6101;SDS011;3081;50.584;7.032;2023-04-08T14:41:08;29.70;;;17.20;;
6101;SDS011;3081;50.584;7.032;2023-04-08T14:43:35;31.90;;;18.80;;
6101;SDS011;3081;50.584;7.032;2023-04-08T14:46:02;35.30;;;20.20;;
6101;SDS011;3081;50.584;7.032;2023-04-08T14:48:29;34.30;;;17.53;;
6101;SDS011;3081;50.584;7.032;2023-04-08T14:50:55;33.60;;;19.00;;
6101;SDS011;3081;50.584;7.032;2023-04-08T14:53:24;34.43;;;18.90;;
6101;SDS011;3081;50.584;7.032;2023-04-08T14:55:50;38.60;;;21.43;;
6101;SDS011;3081;50.584;7.032;2023-04-08T14:58:19;40.33;;;19.70;;